createdAt,value
2019-06-15T00:00:29.213Z,20.24
2019-06-15T00:02:58.121Z,20.30
2019-06-15T00:05:26.994Z,20.28
2019-06-15T00:07:55.914Z,20.22
2019-06-15T00:10:24.780Z,20.14
2019-06-15T00:12:53.662Z,20.09
2019-06-15T00:15:22.572Z,20.10
2019-06-15T00:17:51.488Z,20.05
2019-06-15T00:20:20.436Z,19.97
2019-06-15T00:22:49.338Z,19.90
2019-06-15T00:25:18.254Z,19.88
2019-06-15T00:27:47.149Z,19.87
2019-06-15T00:30:16.060Z,19.82
2019-06-15T00:32:44.984Z,20.16
2019-06-15T00:35:13.878Z,20.22
2019-06-15T00:37:42.762Z,19.85
2019-06-15T00:40:11.705Z,19.75
2019-06-15T00:42:40.594Z,19.79
2019-06-15T00:45:09.491Z,19.79
2019-06-15T00:47:38.364Z,19.76
2019-06-15T00:50:07.397Z,19.76
2019-06-15T00:52:36.285Z,19.74
2019-06-15T00:55:05.298Z,19.70
2019-06-15T00:57:34.318Z,19.60
2019-06-15T01:00:03.154Z,19.67
2019-06-15T01:02:32.062Z,19.57
2019-06-15T01:05:00.974Z,19.77
2019-06-15T01:07:29.878Z,19.59
2019-06-15T01:09:58.795Z,19.45
2019-06-15T01:12:27.688Z,19.49
2019-06-15T01:14:56.612Z,19.50
2019-06-15T01:17:25.517Z,19.45
2019-06-15T01:19:54.449Z,19.46
2019-06-15T01:22:23.326Z,19.40
2019-06-15T01:25:04.941Z,19.43
2019-06-15T01:27:21.190Z,19.44
2019-06-15T01:29:50.090Z,19.45
2019-06-15T01:32:19.005Z,19.45
2019-06-15T01:34:47.898Z,19.47
2019-06-15T01:37:16.780Z,19.34
2019-06-15T01:39:45.694Z,19.37
2019-06-15T01:42:14.587Z,19.36
2019-06-15T01:44:43.500Z,19.38
2019-06-15T01:47:12.388Z,19.37
2019-06-15T01:49:41.308Z,19.33
2019-06-15T01:52:10.225Z,19.30
2019-06-15T01:54:39.132Z,19.27
2019-06-15T01:57:08.087Z,19.30
2019-06-15T01:59:36.990Z,19.24
2019-06-15T02:02:05.935Z,19.25
2019-06-15T02:04:34.849Z,19.55
2019-06-15T02:07:03.782Z,19.31
2019-06-15T02:09:32.666Z,19.27
2019-06-15T02:12:01.591Z,19.19
2019-06-15T02:14:30.518Z,19.16
2019-06-15T02:16:59.431Z,19.13
2019-06-15T02:19:28.476Z,19.21
2019-06-15T02:21:57.320Z,19.18
2019-06-15T02:24:26.218Z,19.47
2019-06-15T02:26:55.125Z,19.26
2019-06-15T02:29:24.010Z,19.17
2019-06-15T02:31:53.003Z,19.11
2019-06-15T02:34:21.874Z,18.93
2019-06-15T02:36:50.777Z,18.81
2019-06-15T02:39:19.672Z,18.84
2019-06-15T02:41:48.551Z,18.85
2019-06-15T02:44:17.520Z,18.79
2019-06-15T02:46:46.847Z,18.76
2019-06-15T02:49:15.729Z,18.80
2019-06-15T02:51:44.623Z,18.78
2019-06-15T02:54:13.524Z,18.73
2019-06-15T02:56:42.413Z,18.71
2019-06-15T02:59:11.311Z,18.69
2019-06-15T03:01:40.195Z,18.65
2019-06-15T03:04:09.163Z,18.69
2019-06-15T03:06:38.024Z,18.62
2019-06-15T03:09:07.011Z,18.63
2019-06-15T03:11:35.935Z,18.89
2019-06-15T03:14:05.405Z,18.63
2019-06-15T03:16:34.323Z,18.63
2019-06-15T03:19:03.226Z,18.65
2019-06-15T03:21:32.115Z,18.62
2019-06-15T03:24:01.017Z,18.61
2019-06-15T03:26:29.910Z,18.62
2019-06-15T03:28:58.826Z,18.64
2019-06-15T03:31:27.705Z,18.60
2019-06-15T03:33:56.622Z,18.55
2019-06-15T03:36:25.517Z,18.54
2019-06-15T03:38:54.431Z,18.47
2019-06-15T03:41:23.377Z,18.32
2019-06-15T03:43:52.277Z,18.37
2019-06-15T03:46:21.168Z,18.42
2019-06-15T03:48:50.059Z,18.46
2019-06-15T03:51:18.936Z,18.51
2019-06-15T03:53:47.867Z,18.56
2019-06-15T03:56:21.755Z,18.59
2019-06-15T03:58:45.651Z,18.60
2019-06-15T04:01:27.178Z,18.63
2019-06-15T04:03:56.059Z,18.65
2019-06-15T04:06:24.968Z,18.63
2019-06-15T04:08:53.920Z,18.62
2019-06-15T04:11:22.813Z,18.63
2019-06-15T04:13:51.738Z,18.88
2019-06-15T04:16:20.624Z,18.62
2019-06-15T04:18:49.541Z,18.60
2019-06-15T04:21:18.451Z,18.57
2019-06-15T04:23:47.349Z,18.32
2019-06-15T04:26:16.254Z,18.30
2019-06-15T04:28:45.141Z,18.32
2019-06-15T04:31:14.090Z,18.32
2019-06-15T04:33:43.009Z,18.25
2019-06-15T04:36:11.919Z,18.04
2019-06-15T04:38:40.822Z,18.10
2019-06-15T04:41:09.854Z,18.04
2019-06-15T04:43:38.697Z,18.07
2019-06-15T04:46:07.661Z,18.46
2019-06-15T04:48:36.564Z,18.63
2019-06-15T04:51:05.620Z,18.20
2019-06-15T04:53:34.533Z,18.05
2019-06-15T04:56:03.450Z,18.06
2019-06-15T04:58:32.328Z,17.90
2019-06-15T05:01:01.283Z,17.90
2019-06-15T05:03:30.177Z,17.83
2019-06-15T05:05:59.067Z,17.95
2019-06-15T05:08:27.984Z,17.96
2019-06-15T05:10:59.940Z,17.97
2019-06-15T05:13:25.787Z,17.95
2019-06-15T05:15:54.686Z,18.00
2019-06-15T05:18:23.607Z,18.07
2019-06-15T05:20:52.553Z,18.07
2019-06-15T05:23:21.405Z,18.08
2019-06-15T05:25:50.326Z,18.14
2019-06-15T05:28:19.215Z,18.16
2019-06-15T05:30:48.133Z,18.18
2019-06-15T05:33:17.063Z,18.09
2019-06-15T05:35:45.963Z,18.18
2019-06-15T05:38:14.868Z,18.23
2019-06-15T05:40:43.746Z,18.16
2019-06-15T05:43:12.680Z,18.19
2019-06-15T05:45:41.610Z,18.22
2019-06-15T05:48:10.506Z,18.58
2019-06-15T05:50:39.402Z,18.38
2019-06-15T05:53:08.480Z,18.32
2019-06-15T05:55:37.361Z,18.29
2019-06-15T05:58:06.255Z,18.28
2019-06-15T06:00:35.178Z,18.30
2019-06-15T06:03:04.116Z,18.30
2019-06-15T06:05:33.041Z,18.36
2019-06-15T06:08:01.935Z,18.36
2019-06-15T06:10:30.858Z,18.44
2019-06-15T06:12:59.764Z,18.34
2019-06-15T06:15:28.676Z,18.30
2019-06-15T06:17:57.574Z,18.39
2019-06-15T06:20:26.464Z,18.38
2019-06-15T06:22:55.358Z,18.40
2019-06-15T06:25:24.277Z,18.49
2019-06-15T06:27:53.175Z,18.56
2019-06-15T06:30:22.076Z,18.52
2019-06-15T06:32:51.023Z,18.51
2019-06-15T06:35:19.892Z,18.46
2019-06-15T06:37:48.768Z,18.54
2019-06-15T06:40:17.687Z,18.48
2019-06-15T06:42:46.593Z,18.44
2019-06-15T06:45:15.513Z,18.56
2019-06-15T06:47:44.423Z,18.56
2019-06-15T06:50:13.366Z,18.62
2019-06-15T06:52:42.274Z,18.68
2019-06-15T06:55:11.173Z,18.71
2019-06-15T06:57:52.360Z,18.82
2019-06-15T07:00:09.043Z,18.95
2019-06-15T07:02:37.963Z,18.91
2019-06-15T07:05:06.973Z,18.92
2019-06-15T07:07:35.902Z,19.03
2019-06-15T07:10:05.441Z,19.13
2019-06-15T07:12:34.425Z,19.05
2019-06-15T07:15:04.860Z,19.11
2019-06-15T07:17:32.285Z,19.22
2019-06-15T07:20:01.226Z,19.54
2019-06-15T07:22:30.178Z,19.37
2019-06-15T07:24:59.028Z,19.39
2019-06-15T07:27:28.131Z,19.36
2019-06-15T07:29:57.048Z,19.44
2019-06-15T07:32:25.951Z,19.55
2019-06-15T07:34:54.847Z,19.41
2019-06-15T07:37:23.758Z,19.38
2019-06-15T07:39:52.693Z,19.22
2019-06-15T07:42:21.696Z,19.36
2019-06-15T07:44:50.590Z,19.20
2019-06-15T07:47:19.578Z,19.14
2019-06-15T07:49:48.432Z,19.01
2019-06-15T07:52:17.338Z,19.38
2019-06-15T07:54:46.273Z,19.08
2019-06-15T07:57:15.197Z,19.00
2019-06-15T07:59:44.107Z,18.97
2019-06-15T08:02:13.029Z,19.02
2019-06-15T08:04:41.949Z,19.05
2019-06-15T08:07:10.840Z,19.26
2019-06-15T08:09:39.735Z,19.55
2019-06-15T08:12:08.667Z,19.86
2019-06-15T08:14:37.574Z,19.92
2019-06-15T08:17:06.640Z,19.97
2019-06-15T08:19:35.508Z,20.00
2019-06-15T08:22:04.385Z,20.19
2019-06-15T08:24:33.279Z,20.27
2019-06-15T08:27:02.216Z,20.49
2019-06-15T08:29:31.089Z,20.52
2019-06-15T08:32:00.026Z,20.63
2019-06-15T08:34:33.887Z,20.36
2019-06-15T08:37:03.190Z,20.37
2019-06-15T08:39:32.727Z,20.31
2019-06-15T08:42:14.378Z,20.48
2019-06-15T08:44:42.111Z,20.71
2019-06-15T08:47:16.094Z,20.68
2019-06-15T08:49:48.357Z,20.90
2019-06-15T08:52:20.058Z,21.43
2019-06-15T08:54:49.303Z,21.78
2019-06-15T08:57:18.547Z,21.89
2019-06-15T08:59:47.796Z,21.70
2019-06-15T09:02:17.338Z,21.42
2019-06-15T09:04:46.661Z,21.12
2019-06-15T09:07:18.168Z,20.88
2019-06-15T09:09:47.457Z,20.71
2019-06-15T09:12:16.647Z,20.35
2019-06-15T09:14:45.796Z,20.11
2019-06-15T09:17:15.123Z,20.07
2019-06-15T09:19:46.946Z,19.93
2019-06-15T09:22:16.131Z,19.92
2019-06-15T09:24:45.285Z,19.46
2019-06-15T09:27:14.820Z,19.73
2019-06-15T09:29:43.959Z,19.29
2019-06-15T09:32:13.086Z,19.16
2019-06-15T09:34:42.327Z,19.06
2019-06-15T09:37:19.844Z,18.96
2019-06-15T09:39:49.208Z,18.98
2019-06-15T09:42:20.985Z,19.46
2019-06-15T09:44:50.084Z,19.71
2019-06-15T09:47:23.932Z,19.50
2019-06-15T09:49:53.135Z,19.50
2019-06-15T09:52:25.097Z,19.42
2019-06-15T09:54:54.204Z,19.60
2019-06-15T09:57:32.025Z,19.62
2019-06-15T10:00:01.130Z,20.14
2019-06-15T10:02:30.936Z,20.63
2019-06-15T10:05:02.847Z,21.08
2019-06-15T10:07:34.963Z,21.70
2019-06-15T10:10:11.595Z,22.20
2019-06-15T10:12:43.310Z,22.77
2019-06-15T10:15:14.413Z,22.96
2019-06-15T10:17:46.266Z,23.16
2019-06-15T10:20:20.128Z,22.86
2019-06-15T10:22:47.204Z,23.14
2019-06-15T10:25:16.403Z,23.66
2019-06-15T10:27:58.251Z,23.65
2019-06-15T10:30:25.756Z,24.31
2019-06-15T10:32:56.760Z,24.60
2019-06-15T10:35:27.743Z,25.25
2019-06-15T10:38:12.754Z,26.06
2019-06-15T10:40:41.933Z,26.12
2019-06-15T10:43:15.711Z,26.42
2019-06-15T10:45:45.636Z,25.55
2019-06-15T10:48:14.753Z,25.61
2019-06-15T10:50:53.536Z,26.87
2019-06-15T10:53:20.375Z,27.67
2019-06-15T10:55:49.739Z,27.74
2019-06-15T10:58:19.117Z,27.01
2019-06-15T11:01:10.530Z,27.37
2019-06-15T11:03:45.636Z,25.81
2019-06-15T11:06:14.918Z,26.67
2019-06-15T11:08:44.453Z,27.15
2019-06-15T11:11:21.981Z,27.93
2019-06-15T11:13:53.757Z,28.25
2019-06-15T11:16:26.209Z,28.02
2019-06-15T11:18:55.315Z,27.59
2019-06-15T11:21:25.104Z,27.16
2019-06-15T11:23:56.997Z,27.15
2019-06-15T11:26:30.296Z,26.72
2019-06-15T11:29:01.928Z,26.11
2019-06-15T11:31:33.993Z,25.89
2019-06-15T11:34:04.218Z,25.68
2019-06-15T11:36:33.269Z,25.89
2019-06-15T11:39:06.660Z,26.53
2019-06-15T11:41:36.041Z,27.29
2019-06-15T11:44:05.347Z,25.55
2019-06-15T11:46:34.645Z,24.59
2019-06-15T11:49:04.223Z,24.49
2019-06-15T11:51:35.417Z,24.53
2019-06-15T11:54:04.831Z,24.76
2019-06-15T11:56:33.974Z,24.37
2019-06-15T11:59:03.321Z,24.36
2019-06-15T12:01:32.472Z,24.06
2019-06-15T12:04:01.875Z,23.80
2019-06-15T12:06:36.182Z,23.66
2019-06-15T12:09:07.947Z,23.67
2019-06-15T12:11:39.643Z,23.55
2019-06-15T12:14:09.080Z,23.25
2019-06-15T12:16:38.579Z,23.10
2019-06-15T12:19:10.628Z,23.04
2019-06-15T12:21:40.054Z,22.92
2019-06-15T12:24:09.409Z,22.64
2019-06-15T12:26:38.581Z,22.54
2019-06-15T12:29:08.035Z,22.52
2019-06-15T12:31:39.823Z,22.35
2019-06-15T12:34:12.402Z,22.14
2019-06-15T12:36:41.633Z,21.97
2019-06-15T12:39:11.205Z,21.70
2019-06-15T12:41:43.636Z,21.78
2019-06-15T12:44:13.010Z,21.70
2019-06-15T12:46:42.325Z,21.72
2019-06-15T12:49:14.115Z,21.58
2019-06-15T12:51:51.313Z,21.70
2019-06-15T12:54:20.507Z,21.75
2019-06-15T12:56:49.606Z,21.79
2019-06-15T12:59:24.115Z,21.86
2019-06-15T13:01:55.678Z,22.22
2019-06-15T13:04:26.361Z,22.65
2019-06-15T13:06:55.814Z,22.65
2019-06-15T13:09:28.257Z,22.87
2019-06-15T13:12:00.693Z,22.86
2019-06-15T13:14:32.602Z,22.80
2019-06-15T13:17:04.945Z,22.93
2019-06-15T13:19:36.055Z,23.00
2019-06-15T13:22:06.429Z,23.39
2019-06-15T13:24:37.421Z,23.53
2019-06-15T13:27:07.039Z,23.96
2019-06-15T13:29:36.113Z,23.86
2019-06-15T13:32:05.692Z,23.72
2019-06-15T13:34:35.320Z,24.13
2019-06-15T13:37:04.607Z,23.87
2019-06-15T13:39:35.981Z,24.24
2019-06-15T13:42:09.867Z,23.71
2019-06-15T13:44:36.654Z,23.67
2019-06-15T13:47:09.247Z,23.36
2019-06-15T13:49:41.207Z,23.09
2019-06-15T13:52:10.462Z,23.09
2019-06-15T13:54:42.027Z,23.02
2019-06-15T13:57:11.429Z,23.09
2019-06-15T13:59:44.272Z,23.24
2019-06-15T14:02:13.421Z,23.66
2019-06-15T14:04:48.250Z,23.28
2019-06-15T14:07:20.921Z,23.36
2019-06-15T14:09:49.891Z,23.81
2019-06-15T14:12:19.147Z,23.47
2019-06-15T14:14:51.022Z,23.32
2019-06-15T14:17:25.538Z,23.37
2019-06-15T14:19:56.780Z,23.08
2019-06-15T14:22:24.252Z,23.16
2019-06-15T14:25:01.892Z,23.50
2019-06-15T14:27:31.269Z,23.62
2019-06-15T14:30:02.949Z,23.70
2019-06-15T14:32:32.115Z,23.71
2019-06-15T14:35:02.650Z,23.80
2019-06-15T14:37:37.682Z,23.82
2019-06-15T14:40:20.781Z,23.53
2019-06-15T14:42:51.959Z,23.79
2019-06-15T14:45:21.322Z,24.03
2019-06-15T14:47:51.193Z,24.04
2019-06-15T14:50:22.882Z,23.85
2019-06-15T14:52:55.154Z,23.58
2019-06-15T14:55:26.272Z,23.46
2019-06-15T14:57:55.947Z,23.41
2019-06-15T15:00:27.514Z,23.51
2019-06-15T15:02:57.455Z,23.37
2019-06-15T15:05:27.534Z,23.32
2019-06-15T15:08:01.107Z,23.10
2019-06-15T15:10:30.296Z,23.00
2019-06-15T15:13:03.109Z,22.84
2019-06-15T15:15:32.632Z,22.73
2019-06-15T15:18:02.211Z,22.68
2019-06-15T15:20:36.363Z,22.72
2019-06-15T15:23:14.247Z,22.78
2019-06-15T15:25:43.680Z,22.61
2019-06-15T15:28:17.311Z,22.72
2019-06-15T15:30:46.539Z,22.74
2019-06-15T15:33:15.859Z,22.60
2019-06-15T15:35:46.633Z,22.67
2019-06-15T15:38:14.130Z,22.79
2019-06-15T15:40:46.823Z,23.13
2019-06-15T15:43:15.995Z,23.23
2019-06-15T15:45:46.086Z,23.23
2019-06-15T15:48:13.636Z,22.98
2019-06-15T15:50:42.861Z,22.85
2019-06-15T15:53:12.091Z,22.80
2019-06-15T15:55:41.474Z,22.40
2019-06-15T15:58:16.481Z,22.33
2019-06-15T16:00:40.567Z,21.98
2019-06-15T16:03:10.052Z,22.04
2019-06-15T16:05:39.194Z,21.96
2019-06-15T16:08:09.007Z,22.06
2019-06-15T16:10:38.089Z,21.96
2019-06-15T16:13:09.893Z,21.90
2019-06-15T16:15:46.110Z,21.80
2019-06-15T16:18:17.159Z,21.81
2019-06-15T16:20:43.420Z,21.65
2019-06-15T16:23:12.281Z,21.87
2019-06-15T16:25:41.188Z,22.06
2019-06-15T16:28:10.174Z,22.22
2019-06-15T16:31:00.632Z,22.13
2019-06-15T16:33:08.282Z,21.83
2019-06-15T16:35:37.047Z,21.69
2019-06-15T16:38:06.889Z,21.51
2019-06-15T16:40:38.890Z,21.51
2019-06-15T16:43:07.938Z,21.75
2019-06-15T16:45:36.812Z,21.69
2019-06-15T16:48:06.367Z,21.66
2019-06-15T16:50:36.561Z,21.80
2019-06-15T16:53:03.808Z,21.75
2019-06-15T16:55:32.711Z,21.71
2019-06-15T16:58:01.605Z,21.54
2019-06-15T17:00:32.795Z,21.74
2019-06-15T17:02:59.423Z,21.50
2019-06-15T17:05:28.315Z,21.40
2019-06-15T17:07:57.205Z,21.57
2019-06-15T17:10:36.254Z,21.35
2019-06-15T17:13:06.773Z,21.28
2019-06-15T17:15:36.881Z,21.41
2019-06-15T17:18:03.379Z,21.47
2019-06-15T17:20:36.017Z,21.36
2019-06-15T17:23:02.959Z,21.25
2019-06-15T17:25:31.850Z,21.42
2019-06-15T17:28:00.765Z,21.46
2019-06-15T17:30:29.668Z,21.46
2019-06-15T17:32:58.572Z,21.40
2019-06-15T17:35:27.477Z,21.32
2019-06-15T17:37:56.536Z,21.36
2019-06-15T17:40:26.836Z,21.18
2019-06-15T17:42:54.187Z,21.12
2019-06-15T17:45:23.078Z,21.02
2019-06-15T17:47:51.995Z,20.95
2019-06-15T17:50:22.582Z,20.88
2019-06-15T17:52:51.463Z,20.85
2019-06-15T17:55:20.402Z,20.86
2019-06-15T17:57:49.301Z,21.15
2019-06-15T18:00:18.226Z,20.99
2019-06-15T18:02:47.131Z,20.95
2019-06-15T18:05:17.966Z,20.99
2019-06-15T18:07:46.978Z,21.22
2019-06-15T18:10:15.931Z,20.98
2019-06-15T18:12:42.776Z,20.88
2019-06-15T18:15:11.676Z,20.76
2019-06-15T18:17:40.589Z,20.67
2019-06-15T18:20:09.740Z,20.58
2019-06-15T18:22:38.633Z,20.56
2019-06-15T18:25:07.730Z,20.50
2019-06-15T18:27:37.224Z,20.46
2019-06-15T18:30:06.528Z,20.40
2019-06-15T18:32:37.662Z,20.41
2019-06-15T18:35:06.023Z,20.40
2019-06-15T18:37:32.531Z,20.39
2019-06-15T18:40:01.457Z,20.67
2019-06-15T18:42:30.339Z,20.44
2019-06-15T18:44:59.221Z,20.38
2019-06-15T18:47:28.145Z,20.39
2019-06-15T18:49:57.069Z,20.32
2019-06-15T18:52:26.581Z,20.25
2019-06-15T18:54:56.031Z,20.20
2019-06-15T18:57:23.822Z,20.43
2019-06-15T18:59:52.683Z,20.31
2019-06-15T19:02:21.579Z,20.21
2019-06-15T19:04:50.469Z,20.14
2019-06-15T19:07:19.373Z,20.18
2019-06-15T19:09:48.336Z,20.19
2019-06-15T19:12:20.677Z,20.18
2019-06-15T19:14:47.058Z,20.18
2019-06-15T19:17:16.492Z,20.12
2019-06-15T19:19:46.640Z,20.06
2019-06-15T19:22:12.780Z,20.03
2019-06-15T19:24:41.711Z,20.02
2019-06-15T19:27:10.624Z,20.06
2019-06-15T19:29:39.520Z,20.05
2019-06-15T19:32:08.560Z,20.05
2019-06-15T19:34:46.348Z,19.98
2019-06-15T19:37:06.831Z,20.14
2019-06-15T19:39:36.909Z,20.01
2019-06-15T19:42:04.176Z,19.88
2019-06-15T19:44:33.081Z,19.75
2019-06-15T19:47:02.008Z,19.62
2019-06-15T19:49:30.882Z,19.47
2019-06-15T19:51:59.809Z,19.31
2019-06-15T19:54:28.679Z,19.26
2019-06-15T19:56:57.593Z,19.22
2019-06-15T19:59:26.494Z,19.18
2019-06-15T20:01:55.384Z,19.14
2019-06-15T20:04:24.283Z,19.11
2019-06-15T20:06:53.158Z,19.14
2019-06-15T20:09:22.058Z,19.08
2019-06-15T20:11:50.944Z,19.04
2019-06-15T20:14:19.879Z,18.95
2019-06-15T20:16:48.799Z,19.00
2019-06-15T20:19:17.786Z,18.97
2019-06-15T20:21:46.572Z,18.91
2019-06-15T20:24:16.180Z,18.79
2019-06-15T20:26:44.393Z,18.70
2019-06-15T20:29:13.318Z,18.63
2019-06-15T20:31:42.205Z,18.98
2019-06-15T20:34:11.106Z,18.69
2019-06-15T20:36:40.026Z,18.67
2019-06-15T20:39:08.970Z,18.93
2019-06-15T20:41:37.876Z,18.96
2019-06-15T20:44:06.824Z,18.75
2019-06-15T20:46:37.136Z,18.63
2019-06-15T20:49:06.549Z,18.54
2019-06-15T20:51:33.578Z,18.48
2019-06-15T20:54:02.473Z,18.37
2019-06-15T20:56:31.365Z,18.32
2019-06-15T20:59:00.258Z,18.20
2019-06-15T21:01:29.159Z,18.14
2019-06-15T21:03:58.052Z,18.05
2019-06-15T21:06:26.955Z,17.93
2019-06-15T21:08:55.882Z,17.86
2019-06-15T21:11:26.555Z,17.79
2019-06-15T21:13:55.789Z,17.70
2019-06-15T21:16:22.578Z,17.67
2019-06-15T21:18:51.501Z,17.86
2019-06-15T21:21:20.377Z,17.57
2019-06-15T21:23:49.282Z,17.45
2019-06-15T21:26:18.171Z,17.41
2019-06-15T21:28:47.054Z,17.32
2019-06-15T21:31:16.710Z,17.21
2019-06-15T21:33:46.799Z,17.18
2019-06-15T21:36:13.725Z,17.14
2019-06-15T21:38:42.642Z,17.07
2019-06-15T21:41:11.532Z,16.93
2019-06-15T21:43:40.451Z,16.90
2019-06-15T21:46:09.395Z,16.85
2019-06-15T21:48:38.285Z,16.79
2019-06-15T21:51:08.087Z,16.71
2019-06-15T21:53:36.360Z,16.70
2019-06-15T21:56:07.155Z,16.97
2019-06-15T21:58:36.686Z,16.67
2019-06-15T22:01:23.003Z,16.60
2019-06-15T22:03:51.905Z,16.57
2019-06-15T22:06:20.805Z,16.51
2019-06-15T22:08:49.681Z,16.42
2019-06-15T22:11:18.581Z,16.38
2019-06-15T22:13:47.462Z,16.39
2019-06-15T22:16:17.101Z,16.40
2019-06-15T22:18:47.487Z,16.36
2019-06-15T22:21:16.137Z,16.34
2019-06-15T22:23:43.050Z,16.26
2019-06-15T22:26:11.960Z,16.24
2019-06-15T22:28:40.843Z,16.21
2019-06-15T22:31:09.727Z,16.17
2019-06-15T22:33:38.623Z,16.10
2019-06-15T22:36:20.891Z,16.07
2019-06-15T22:38:36.856Z,16.01
2019-06-15T22:41:06.028Z,15.97
2019-06-15T22:43:36.245Z,15.94
2019-06-15T22:46:03.182Z,15.92
2019-06-15T22:48:32.057Z,15.88
2019-06-15T22:51:00.960Z,15.89
2019-06-15T22:53:29.850Z,15.97
2019-06-15T22:55:58.748Z,15.87
2019-06-15T22:58:27.644Z,15.79
2019-06-15T23:00:56.855Z,15.71
2019-06-15T23:03:26.240Z,15.69
2019-06-15T23:05:56.987Z,15.66
2019-06-15T23:08:23.252Z,15.58
2019-06-15T23:10:52.194Z,15.51
2019-06-15T23:13:21.052Z,15.71
2019-06-15T23:15:49.942Z,15.49
2019-06-15T23:18:18.851Z,15.38
2019-06-15T23:20:47.740Z,15.40
2019-06-15T23:23:16.639Z,15.34
2019-06-15T23:25:47.186Z,15.28
2019-06-15T23:28:16.630Z,15.24
2019-06-15T23:30:43.605Z,15.24
2019-06-15T23:33:12.489Z,15.17
2019-06-15T23:35:46.546Z,15.31
2019-06-15T23:38:15.952Z,15.42
2019-06-15T23:40:42.966Z,15.46
2019-06-15T23:43:11.865Z,15.43
2019-06-15T23:45:40.746Z,15.44
2019-06-15T23:48:09.702Z,15.41
2019-06-15T23:50:38.592Z,15.46
2019-06-15T23:53:07.586Z,15.44
2019-06-15T23:55:36.668Z,15.76
2019-06-15T23:58:06.703Z,15.51
